sensor_id;sensor_type;location;lat;lon;timestamp;P1;durP1;ratioP1;P2;durP2;ratioP2
21979;SDS011;11154;48.558;9.234;2022-11-04T00:00:33;1.02;;;0.80;;
21979;SDS011;11154;48.558;9.234;2022-11-04T00:02:34;1.80;;;1.08;;
21979;SDS011;11154;48.558;9.234;2022-11-04T00:04:36;1.13;;;0.80;;
21979;SDS011;11154;48.558;9.234;2022-11-04T00:06:38;0.85;;;0.85;;
21979;SDS011;11154;48.558;9.234;2022-11-04T00:08:40;4.07;;;3.20;;
21979;SDS011;11154;48.558;9.234;2022-11-04T00:10:41;2.25;;;1.95;;
21979;SDS011;11154;48.558;9.234;2022-11-04T00:12:59;1.30;;;1.10;;
21979;SDS011;11154;48.558;9.234;2022-11-04T00:15:01;2.15;;;0.90;;
21979;SDS011;11154;48.558;9.234;2022-11-04T00:17:18;1.15;;;1.00;;
21979;SDS011;11154;48.558;9.234;2022-11-04T00:19:21;1.23;;;1.00;;
21979;SDS011;11154;48.558;9.234;2022-11-04T00:21:23;1.08;;;0.98;;
21979;SDS011;11154;48.558;9.234;2022-11-04T00:23:42;1.00;;;0.90;;
21979;SDS011;11154;48.558;9.234;2022-11-04T00:26:01;1.05;;;0.80;;
21979;SDS011;11154;48.558;9.234;2022-11-04T00:28:20;1.33;;;0.88;;
21979;SDS011;11154;48.558;9.234;2022-11-04T00:30:44;1.17;;;1.00;;
21979;SDS011;11154;48.558;9.234;2022-11-04T00:32:47;2.45;;;1.00;;
21979;SDS011;11154;48.558;9.234;2022-11-04T00:35:06;1.17;;;1.08;;
21979;SDS011;11154;48.558;9.234;2022-11-04T00:37:09;0.98;;;0.90;;
21979;SDS011;11154;48.558;9.234;2022-11-04T00:39:11;1.20;;;0.90;;
21979;SDS011;11154;48.558;9.234;2022-11-04T00:41:12;1.25;;;1.00;;
21979;SDS011;11154;48.558;9.234;2022-11-04T00:43:26;1.73;;;1.15;;
21979;SDS011;11154;48.558;9.234;2022-11-04T00:45:28;1.35;;;1.10;;
21979;SDS011;11154;48.558;9.234;2022-11-04T00:47:30;1.40;;;1.10;;
21979;SDS011;11154;48.558;9.234;2022-11-04T00:49:33;1.52;;;1.30;;
21979;SDS011;11154;48.558;9.234;2022-11-04T00:51:34;1.50;;;1.23;;
21979;SDS011;11154;48.558;9.234;2022-11-04T00:53:36;1.30;;;1.17;;
21979;SDS011;11154;48.558;9.234;2022-11-04T00:55:37;1.25;;;1.10;;
21979;SDS011;11154;48.558;9.234;2022-11-04T00:57:39;2.25;;;1.00;;
21979;SDS011;11154;48.558;9.234;2022-11-04T00:59:41;1.13;;;1.02;;
21979;SDS011;11154;48.558;9.234;2022-11-04T01:01:44;0.90;;;0.90;;
21979;SDS011;11154;48.558;9.234;2022-11-04T01:03:46;0.90;;;0.90;;
21979;SDS011;11154;48.558;9.234;2022-11-04T01:05:51;1.25;;;1.10;;
21979;SDS011;11154;48.558;9.234;2022-11-04T01:07:52;1.42;;;1.00;;
21979;SDS011;11154;48.558;9.234;2022-11-04T01:09:54;1.10;;;1.00;;
21979;SDS011;11154;48.558;9.234;2022-11-04T01:11:55;2.75;;;1.13;;
21979;SDS011;11154;48.558;9.234;2022-11-04T01:13:57;1.17;;;1.05;;
21979;SDS011;11154;48.558;9.234;2022-11-04T01:16:00;1.17;;;0.93;;
21979;SDS011;11154;48.558;9.234;2022-11-04T01:18:03;1.60;;;1.20;;
21979;SDS011;11154;48.558;9.234;2022-11-04T01:20:05;1.23;;;0.98;;
21979;SDS011;11154;48.558;9.234;2022-11-04T01:22:09;2.97;;;1.05;;
21979;SDS011;11154;48.558;9.234;2022-11-04T01:24:10;1.25;;;0.98;;
21979;SDS011;11154;48.558;9.234;2022-11-04T01:26:13;1.17;;;1.00;;
21979;SDS011;11154;48.558;9.234;2022-11-04T01:28:16;1.38;;;1.05;;
21979;SDS011;11154;48.558;9.234;2022-11-04T01:30:17;1.83;;;1.10;;
21979;SDS011;11154;48.558;9.234;2022-11-04T01:32:19;1.42;;;1.08;;
21979;SDS011;11154;48.558;9.234;2022-11-04T01:34:21;1.75;;;1.40;;
21979;SDS011;11154;48.558;9.234;2022-11-04T01:36:23;1.58;;;1.00;;
21979;SDS011;11154;48.558;9.234;2022-11-04T01:38:27;1.10;;;1.00;;
21979;SDS011;11154;48.558;9.234;2022-11-04T01:40:29;1.35;;;1.00;;
21979;SDS011;11154;48.558;9.234;2022-11-04T01:42:37;1.10;;;1.00;;
21979;SDS011;11154;48.558;9.234;2022-11-04T01:44:46;1.10;;;1.00;;
21979;SDS011;11154;48.558;9.234;2022-11-04T01:46:50;1.50;;;1.00;;
21979;SDS011;11154;48.558;9.234;2022-11-04T01:48:55;1.10;;;1.00;;
21979;SDS011;11154;48.558;9.234;2022-11-04T01:51:00;1.70;;;1.33;;
21979;SDS011;11154;48.558;9.234;2022-11-04T01:53:03;1.20;;;1.10;;
21979;SDS011;11154;48.558;9.234;2022-11-04T01:55:10;1.23;;;1.00;;
21979;SDS011;11154;48.558;9.234;2022-11-04T01:57:16;1.35;;;1.10;;
21979;SDS011;11154;48.558;9.234;2022-11-04T01:59:21;1.10;;;1.00;;
21979;SDS011;11154;48.558;9.234;2022-11-04T02:01:27;1.02;;;0.93;;
21979;SDS011;11154;48.558;9.234;2022-11-04T02:03:30;1.33;;;1.00;;
21979;SDS011;11154;48.558;9.234;2022-11-04T02:05:35;1.23;;;0.98;;
21979;SDS011;11154;48.558;9.234;2022-11-04T02:07:37;1.25;;;1.15;;
21979;SDS011;11154;48.558;9.234;2022-11-04T02:09:39;2.17;;;0.90;;
21979;SDS011;11154;48.558;9.234;2022-11-04T02:11:43;1.15;;;0.90;;
21979;SDS011;11154;48.558;9.234;2022-11-04T02:14:02;1.25;;;0.90;;
21979;SDS011;11154;48.558;9.234;2022-11-04T02:16:06;0.70;;;0.70;;
21979;SDS011;11154;48.558;9.234;2022-11-04T02:18:19;1.17;;;0.90;;
21979;SDS011;11154;48.558;9.234;2022-11-04T02:20:28;1.15;;;0.77;;
21979;SDS011;11154;48.558;9.234;2022-11-04T02:25:29;2.53;;;2.03;;
21979;SDS011;11154;48.558;9.234;2022-11-04T02:27:52;0.90;;;0.90;;
21979;SDS011;11154;48.558;9.234;2022-11-04T02:30:14;0.95;;;0.80;;
21979;SDS011;11154;48.558;9.234;2022-11-04T02:32:18;0.80;;;0.80;;
21979;SDS011;11154;48.558;9.234;2022-11-04T02:34:27;0.80;;;0.70;;
21979;SDS011;11154;48.558;9.234;2022-11-04T02:36:38;0.75;;;0.73;;
21979;SDS011;11154;48.558;9.234;2022-11-04T02:38:49;0.60;;;0.60;;
21979;SDS011;11154;48.558;9.234;2022-11-04T02:40:56;0.60;;;0.57;;
21979;SDS011;11154;48.558;9.234;2022-11-04T02:43:05;0.80;;;0.57;;
21979;SDS011;11154;48.558;9.234;2022-11-04T02:45:18;0.47;;;0.47;;
21979;SDS011;11154;48.558;9.234;2022-11-04T02:47:24;0.90;;;0.70;;
21979;SDS011;11154;48.558;9.234;2022-11-04T02:49:31;0.35;;;0.35;;
21979;SDS011;11154;48.558;9.234;2022-11-04T02:51:39;0.63;;;0.40;;
21979;SDS011;11154;48.558;9.234;2022-11-04T02:53:46;0.85;;;0.43;;
21979;SDS011;11154;48.558;9.234;2022-11-04T02:55:53;0.47;;;0.40;;
21979;SDS011;11154;48.558;9.234;2022-11-04T02:57:57;0.38;;;0.38;;
21979;SDS011;11154;48.558;9.234;2022-11-04T03:00:03;0.63;;;0.47;;
21979;SDS011;11154;48.558;9.234;2022-11-04T03:02:09;0.75;;;0.50;;
21979;SDS011;11154;48.558;9.234;2022-11-04T03:04:17;0.60;;;0.40;;
21979;SDS011;11154;48.558;9.234;2022-11-04T03:06:23;0.65;;;0.50;;
21979;SDS011;11154;48.558;9.234;2022-11-04T03:08:29;0.82;;;0.43;;
21979;SDS011;11154;48.558;9.234;2022-11-04T03:10:33;0.90;;;0.57;;
21979;SDS011;11154;48.558;9.234;2022-11-04T03:12:37;0.47;;;0.40;;
21979;SDS011;11154;48.558;9.234;2022-11-04T03:14:50;0.20;;;0.20;;
21979;SDS011;11154;48.558;9.234;2022-11-04T03:16:56;0.30;;;0.30;;
21979;SDS011;11154;48.558;9.234;2022-11-04T03:19:04;0.68;;;0.40;;
21979;SDS011;11154;48.558;9.234;2022-11-04T03:21:12;0.60;;;0.57;;
21979;SDS011;11154;48.558;9.234;2022-11-04T03:23:15;0.68;;;0.57;;
21979;SDS011;11154;48.558;9.234;2022-11-04T03:25:17;0.70;;;0.40;;
21979;SDS011;11154;48.558;9.234;2022-11-04T03:27:21;0.43;;;0.40;;
21979;SDS011;11154;48.558;9.234;2022-11-04T03:31:36;0.40;;;0.28;;
21979;SDS011;11154;48.558;9.234;2022-11-04T03:33:46;0.43;;;0.40;;
21979;SDS011;11154;48.558;9.234;2022-11-04T03:35:50;0.32;;;0.30;;
21979;SDS011;11154;48.558;9.234;2022-11-04T03:37:52;0.98;;;0.28;;
21979;SDS011;11154;48.558;9.234;2022-11-04T03:39:54;0.38;;;0.38;;
21979;SDS011;11154;48.558;9.234;2022-11-04T03:41:56;5.30;;;2.63;;
21979;SDS011;11154;48.558;9.234;2022-11-04T03:44:00;1.30;;;0.77;;
21979;SDS011;11154;48.558;9.234;2022-11-04T03:46:02;0.40;;;0.40;;
21979;SDS011;11154;48.558;9.234;2022-11-04T03:48:04;0.40;;;0.38;;
21979;SDS011;11154;48.558;9.234;2022-11-04T03:50:07;1.10;;;0.50;;
21979;SDS011;11154;48.558;9.234;2022-11-04T03:52:12;0.63;;;0.20;;
21979;SDS011;11154;48.558;9.234;2022-11-04T03:54:15;0.28;;;0.28;;
21979;SDS011;11154;48.558;9.234;2022-11-04T03:56:21;1.92;;;0.55;;
21979;SDS011;11154;48.558;9.234;2022-11-04T03:58:35;0.57;;;0.30;;
21979;SDS011;11154;48.558;9.234;2022-11-04T04:00:46;1.20;;;0.40;;
21979;SDS011;11154;48.558;9.234;2022-11-04T04:02:59;1.30;;;1.00;;
21979;SDS011;11154;48.558;9.234;2022-11-04T04:05:09;0.75;;;0.50;;
21979;SDS011;11154;48.558;9.234;2022-11-04T04:07:17;1.35;;;0.60;;
21979;SDS011;11154;48.558;9.234;2022-11-04T04:09:33;0.68;;;0.40;;
21979;SDS011;11154;48.558;9.234;2022-11-04T04:11:40;0.93;;;0.45;;
21979;SDS011;11154;48.558;9.234;2022-11-04T04:13:45;0.82;;;0.57;;
21979;SDS011;11154;48.558;9.234;2022-11-04T04:15:53;0.73;;;0.30;;
21979;SDS011;11154;48.558;9.234;2022-11-04T04:17:59;0.43;;;0.43;;
21979;SDS011;11154;48.558;9.234;2022-11-04T04:20:07;0.40;;;0.30;;
21979;SDS011;11154;48.558;9.234;2022-11-04T04:22:13;0.28;;;0.28;;
21979;SDS011;11154;48.558;9.234;2022-11-04T04:24:20;0.30;;;0.30;;
21979;SDS011;11154;48.558;9.234;2022-11-04T04:26:44;1.08;;;0.50;;
21979;SDS011;11154;48.558;9.234;2022-11-04T04:29:06;0.88;;;0.40;;
21979;SDS011;11154;48.558;9.234;2022-11-04T04:31:09;1.48;;;0.60;;
21979;SDS011;11154;48.558;9.234;2022-11-04T04:33:35;0.50;;;0.40;;
21979;SDS011;11154;48.558;9.234;2022-11-04T04:35:38;1.42;;;0.30;;
21979;SDS011;11154;48.558;9.234;2022-11-04T04:37:45;1.48;;;0.40;;
21979;SDS011;11154;48.558;9.234;2022-11-04T04:39:48;0.50;;;0.20;;
21979;SDS011;11154;48.558;9.234;2022-11-04T04:42:11;0.40;;;0.30;;
21979;SDS011;11154;48.558;9.234;2022-11-04T04:44:30;0.50;;;0.40;;
21979;SDS011;11154;48.558;9.234;2022-11-04T04:46:49;0.82;;;0.50;;
21979;SDS011;11154;48.558;9.234;2022-11-04T04:48:54;1.02;;;0.50;;
21979;SDS011;11154;48.558;9.234;2022-11-04T04:50:56;0.50;;;0.43;;
21979;SDS011;11154;48.558;9.234;2022-11-04T04:53:02;0.50;;;0.50;;
21979;SDS011;11154;48.558;9.234;2022-11-04T04:55:04;1.60;;;0.80;;
21979;SDS011;11154;48.558;9.234;2022-11-04T04:57:07;2.67;;;1.30;;
21979;SDS011;11154;48.558;9.234;2022-11-04T04:59:08;2.53;;;1.85;;
21979;SDS011;11154;48.558;9.234;2022-11-04T05:01:10;1.80;;;0.90;;
21979;SDS011;11154;48.558;9.234;2022-11-04T05:03:12;0.95;;;0.47;;
21979;SDS011;11154;48.558;9.234;2022-11-04T05:05:13;1.10;;;0.60;;
21979;SDS011;11154;48.558;9.234;2022-11-04T05:07:15;2.25;;;0.80;;
21979;SDS011;11154;48.558;9.234;2022-11-04T05:09:19;1.33;;;0.80;;
21979;SDS011;11154;48.558;9.234;2022-11-04T05:11:21;0.50;;;0.50;;
21979;SDS011;11154;48.558;9.234;2022-11-04T05:13:22;0.70;;;0.60;;
21979;SDS011;11154;48.558;9.234;2022-11-04T05:15:26;1.05;;;0.57;;
21979;SDS011;11154;48.558;9.234;2022-11-04T05:17:29;0.50;;;0.50;;
21979;SDS011;11154;48.558;9.234;2022-11-04T05:19:30;1.55;;;0.50;;
21979;SDS011;11154;48.558;9.234;2022-11-04T05:21:32;1.45;;;0.50;;
21979;SDS011;11154;48.558;9.234;2022-11-04T05:23:34;0.68;;;0.50;;
21979;SDS011;11154;48.558;9.234;2022-11-04T05:25:37;2.33;;;0.60;;
21979;SDS011;11154;48.558;9.234;2022-11-04T05:27:39;0.75;;;0.50;;
21979;SDS011;11154;48.558;9.234;2022-11-04T05:29:41;1.05;;;0.40;;
21979;SDS011;11154;48.558;9.234;2022-11-04T05:31:43;0.82;;;0.50;;
21979;SDS011;11154;48.558;9.234;2022-11-04T05:33:44;0.30;;;0.30;;
21979;SDS011;11154;48.558;9.234;2022-11-04T05:35:46;2.90;;;0.50;;
21979;SDS011;11154;48.558;9.234;2022-11-04T05:37:48;1.00;;;0.38;;
21979;SDS011;11154;48.558;9.234;2022-11-04T05:39:49;1.73;;;0.50;;
21979;SDS011;11154;48.558;9.234;2022-11-04T05:41:52;0.55;;;0.50;;
21979;SDS011;11154;48.558;9.234;2022-11-04T05:43:55;1.35;;;0.52;;
21979;SDS011;11154;48.558;9.234;2022-11-04T05:45:58;2.58;;;0.75;;
21979;SDS011;11154;48.558;9.234;2022-11-04T05:48:01;1.83;;;0.55;;
21979;SDS011;11154;48.558;9.234;2022-11-04T05:50:04;0.68;;;0.50;;
21979;SDS011;11154;48.558;9.234;2022-11-04T05:52:06;1.65;;;0.50;;
21979;SDS011;11154;48.558;9.234;2022-11-04T05:54:08;1.02;;;0.47;;
21979;SDS011;11154;48.558;9.234;2022-11-04T05:56:10;0.70;;;0.43;;
21979;SDS011;11154;48.558;9.234;2022-11-04T05:58:13;2.53;;;0.60;;
21979;SDS011;11154;48.558;9.234;2022-11-04T06:00:15;0.80;;;0.30;;
21979;SDS011;11154;48.558;9.234;2022-11-04T06:02:16;1.23;;;0.50;;
21979;SDS011;11154;48.558;9.234;2022-11-04T06:04:18;0.50;;;0.50;;
21979;SDS011;11154;48.558;9.234;2022-11-04T06:06:20;1.50;;;0.47;;
21979;SDS011;11154;48.558;9.234;2022-11-04T06:08:23;1.15;;;0.40;;
21979;SDS011;11154;48.558;9.234;2022-11-04T06:10:25;2.20;;;0.57;;
21979;SDS011;11154;48.558;9.234;2022-11-04T06:12:26;1.17;;;0.63;;
21979;SDS011;11154;48.558;9.234;2022-11-04T06:14:29;4.00;;;0.90;;
21979;SDS011;11154;48.558;9.234;2022-11-04T06:16:31;6.35;;;3.80;;
21979;SDS011;11154;48.558;9.234;2022-11-04T06:18:33;1.20;;;0.70;;
21979;SDS011;11154;48.558;9.234;2022-11-04T06:20:34;4.15;;;1.75;;
21979;SDS011;11154;48.558;9.234;2022-11-04T06:22:36;11.27;;;5.72;;
21979;SDS011;11154;48.558;9.234;2022-11-04T06:24:38;1.45;;;0.88;;
21979;SDS011;11154;48.558;9.234;2022-11-04T06:26:40;4.55;;;2.47;;
21979;SDS011;11154;48.558;9.234;2022-11-04T06:28:41;2.28;;;1.35;;
21979;SDS011;11154;48.558;9.234;2022-11-04T06:30:44;1.83;;;1.15;;
21979;SDS011;11154;48.558;9.234;2022-11-04T06:32:46;3.53;;;2.00;;
21979;SDS011;11154;48.558;9.234;2022-11-04T06:34:48;3.95;;;1.90;;
21979;SDS011;11154;48.558;9.234;2022-11-04T06:36:49;5.65;;;2.75;;
21979;SDS011;11154;48.558;9.234;2022-11-04T06:38:51;4.70;;;2.65;;
21979;SDS011;11154;48.558;9.234;2022-11-04T06:40:53;3.40;;;2.35;;
21979;SDS011;11154;48.558;9.234;2022-11-04T06:42:54;4.20;;;2.13;;
21979;SDS011;11154;48.558;9.234;2022-11-04T06:44:56;3.67;;;1.70;;
21979;SDS011;11154;48.558;9.234;2022-11-04T06:46:59;2.33;;;1.40;;
21979;SDS011;11154;48.558;9.234;2022-11-04T06:49:02;3.95;;;1.40;;
21979;SDS011;11154;48.558;9.234;2022-11-04T06:51:04;3.10;;;2.50;;
21979;SDS011;11154;48.558;9.234;2022-11-04T06:53:07;4.70;;;1.92;;
21979;SDS011;11154;48.558;9.234;2022-11-04T06:55:09;5.47;;;3.38;;
21979;SDS011;11154;48.558;9.234;2022-11-04T06:57:10;3.47;;;2.72;;
21979;SDS011;11154;48.558;9.234;2022-11-04T06:59:13;3.75;;;3.10;;
21979;SDS011;11154;48.558;9.234;2022-11-04T07:01:17;3.50;;;2.85;;
21979;SDS011;11154;48.558;9.234;2022-11-04T07:03:20;3.03;;;2.50;;
21979;SDS011;11154;48.558;9.234;2022-11-04T07:05:22;5.20;;;2.97;;
21979;SDS011;11154;48.558;9.234;2022-11-04T07:07:24;4.05;;;3.65;;
21979;SDS011;11154;48.558;9.234;2022-11-04T07:09:28;19.08;;;12.90;;
21979;SDS011;11154;48.558;9.234;2022-11-04T07:11:30;9.15;;;6.43;;
21979;SDS011;11154;48.558;9.234;2022-11-04T07:13:33;8.73;;;6.72;;
21979;SDS011;11154;48.558;9.234;2022-11-04T07:15:36;6.80;;;4.85;;
21979;SDS011;11154;48.558;9.234;2022-11-04T07:17:38;5.75;;;4.30;;
21979;SDS011;11154;48.558;9.234;2022-11-04T07:19:41;7.43;;;4.50;;
21979;SDS011;11154;48.558;9.234;2022-11-04T07:21:43;5.10;;;3.28;;
21979;SDS011;11154;48.558;9.234;2022-11-04T07:23:44;4.90;;;3.20;;
21979;SDS011;11154;48.558;9.234;2022-11-04T07:25:46;4.43;;;3.22;;
21979;SDS011;11154;48.558;9.234;2022-11-04T07:27:48;4.10;;;3.08;;
21979;SDS011;11154;48.558;9.234;2022-11-04T07:29:50;4.10;;;2.97;;
21979;SDS011;11154;48.558;9.234;2022-11-04T07:31:52;4.18;;;2.70;;
21979;SDS011;11154;48.558;9.234;2022-11-04T07:33:54;4.82;;;3.55;;
21979;SDS011;11154;48.558;9.234;2022-11-04T07:35:57;5.78;;;2.60;;
21979;SDS011;11154;48.558;9.234;2022-11-04T07:37:58;4.10;;;2.80;;
21979;SDS011;11154;48.558;9.234;2022-11-04T07:40:00;4.95;;;2.92;;
21979;SDS011;11154;48.558;9.234;2022-11-04T07:42:02;3.97;;;2.78;;
21979;SDS011;11154;48.558;9.234;2022-11-04T07:44:03;5.93;;;3.55;;
21979;SDS011;11154;48.558;9.234;2022-11-04T07:46:06;4.57;;;3.13;;
21979;SDS011;11154;48.558;9.234;2022-11-04T07:48:08;4.13;;;3.05;;
21979;SDS011;11154;48.558;9.234;2022-11-04T07:50:10;4.32;;;2.70;;
21979;SDS011;11154;48.558;9.234;2022-11-04T07:52:13;4.32;;;3.78;;
21979;SDS011;11154;48.558;9.234;2022-11-04T07:54:15;5.97;;;3.97;;
21979;SDS011;11154;48.558;9.234;2022-11-04T07:56:17;3.78;;;2.38;;
21979;SDS011;11154;48.558;9.234;2022-11-04T07:58:19;2.47;;;2.05;;
21979;SDS011;11154;48.558;9.234;2022-11-04T08:00:21;2.45;;;2.13;;
21979;SDS011;11154;48.558;9.234;2022-11-04T08:02:23;2.85;;;2.00;;
21979;SDS011;11154;48.558;9.234;2022-11-04T08:04:24;3.13;;;2.20;;
21979;SDS011;11154;48.558;9.234;2022-11-04T08:06:26;2.83;;;2.25;;
21979;SDS011;11154;48.558;9.234;2022-11-04T08:08:29;2.80;;;2.20;;
21979;SDS011;11154;48.558;9.234;2022-11-04T08:10:31;2.88;;;1.70;;
21979;SDS011;11154;48.558;9.234;2022-11-04T08:12:34;3.13;;;2.00;;
21979;SDS011;11154;48.558;9.234;2022-11-04T08:14:37;3.80;;;2.25;;
21979;SDS011;11154;48.558;9.234;2022-11-04T08:16:38;4.43;;;2.60;;
21979;SDS011;11154;48.558;9.234;2022-11-04T08:18:40;4.63;;;3.13;;
21979;SDS011;11154;48.558;9.234;2022-11-04T08:20:46;8.50;;;4.15;;
21979;SDS011;11154;48.558;9.234;2022-11-04T08:22:49;3.83;;;1.80;;
21979;SDS011;11154;48.558;9.234;2022-11-04T08:24:51;2.25;;;1.20;;
21979;SDS011;11154;48.558;9.234;2022-11-04T08:26:53;1.73;;;1.27;;
21979;SDS011;11154;48.558;9.234;2022-11-04T08:28:55;1.63;;;1.40;;
21979;SDS011;11154;48.558;9.234;2022-11-04T08:30:57;1.40;;;1.20;;
21979;SDS011;11154;48.558;9.234;2022-11-04T08:33:01;1.88;;;1.58;;
21979;SDS011;11154;48.558;9.234;2022-11-04T08:35:04;2.38;;;1.70;;
21979;SDS011;11154;48.558;9.234;2022-11-04T08:37:08;3.60;;;2.17;;
21979;SDS011;11154;48.558;9.234;2022-11-04T08:39:10;8.30;;;3.63;;
21979;SDS011;11154;48.558;9.234;2022-11-04T08:41:15;11.30;;;4.40;;
21979;SDS011;11154;48.558;9.234;2022-11-04T08:43:18;12.93;;;4.57;;
21979;SDS011;11154;48.558;9.234;2022-11-04T08:45:20;10.57;;;4.63;;
21979;SDS011;11154;48.558;9.234;2022-11-04T08:47:22;11.85;;;4.82;;
21979;SDS011;11154;48.558;9.234;2022-11-04T08:49:23;9.07;;;4.13;;
21979;SDS011;11154;48.558;9.234;2022-11-04T08:51:25;12.57;;;4.63;;
21979;SDS011;11154;48.558;9.234;2022-11-04T08:53:28;12.43;;;4.80;;
21979;SDS011;11154;48.558;9.234;2022-11-04T08:55:30;10.13;;;3.90;;
21979;SDS011;11154;48.558;9.234;2022-11-04T08:57:34;4.25;;;2.90;;
21979;SDS011;11154;48.558;9.234;2022-11-04T08:59:36;3.65;;;2.38;;
21979;SDS011;11154;48.558;9.234;2022-11-04T09:01:37;3.58;;;2.45;;
21979;SDS011;11154;48.558;9.234;2022-11-04T09:03:40;3.58;;;2.38;;
21979;SDS011;11154;48.558;9.234;2022-11-04T09:05:42;4.53;;;3.25;;
21979;SDS011;11154;48.558;9.234;2022-11-04T09:07:46;5.45;;;4.30;;
21979;SDS011;11154;48.558;9.234;2022-11-04T09:09:49;5.07;;;4.13;;
21979;SDS011;11154;48.558;9.234;2022-11-04T09:11:50;5.28;;;4.18;;
21979;SDS011;11154;48.558;9.234;2022-11-04T09:13:54;5.90;;;4.50;;
21979;SDS011;11154;48.558;9.234;2022-11-04T09:15:58;5.22;;;4.00;;
21979;SDS011;11154;48.558;9.234;2022-11-04T09:18:00;6.47;;;4.35;;
21979;SDS011;11154;48.558;9.234;2022-11-04T09:20:02;8.23;;;4.32;;
21979;SDS011;11154;48.558;9.234;2022-11-04T09:22:04;6.50;;;4.10;;
21979;SDS011;11154;48.558;9.234;2022-11-04T09:24:06;8.40;;;4.88;;
21979;SDS011;11154;48.558;9.234;2022-11-04T09:26:08;9.73;;;5.20;;
21979;SDS011;11154;48.558;9.234;2022-11-04T09:28:12;6.75;;;4.63;;
21979;SDS011;11154;48.558;9.234;2022-11-04T09:30:15;6.22;;;3.80;;
21979;SDS011;11154;48.558;9.234;2022-11-04T09:32:17;7.68;;;3.95;;
21979;SDS011;11154;48.558;9.234;2022-11-04T09:34:19;6.05;;;4.43;;
21979;SDS011;11154;48.558;9.234;2022-11-04T09:36:20;6.20;;;4.47;;
21979;SDS011;11154;48.558;9.234;2022-11-04T09:38:22;4.60;;;3.40;;
21979;SDS011;11154;48.558;9.234;2022-11-04T09:40:24;3.30;;;2.00;;
21979;SDS011;11154;48.558;9.234;2022-11-04T09:42:30;3.42;;;1.85;;
21979;SDS011;11154;48.558;9.234;2022-11-04T09:44:43;5.03;;;1.30;;
21979;SDS011;11154;48.558;9.234;2022-11-04T09:46:51;7.95;;;4.90;;
21979;SDS011;11154;48.558;9.234;2022-11-04T09:48:55;12.80;;;7.85;;
21979;SDS011;11154;48.558;9.234;2022-11-04T09:50:58;5.40;;;3.55;;
21979;SDS011;11154;48.558;9.234;2022-11-04T09:53:03;6.00;;;2.97;;
21979;SDS011;11154;48.558;9.234;2022-11-04T09:55:11;3.80;;;2.33;;
21979;SDS011;11154;48.558;9.234;2022-11-04T09:57:21;10.05;;;4.30;;
21979;SDS011;11154;48.558;9.234;2022-11-04T09:59:24;6.75;;;2.95;;
21979;SDS011;11154;48.558;9.234;2022-11-04T10:01:30;4.80;;;2.50;;
21979;SDS011;11154;48.558;9.234;2022-11-04T10:03:42;6.75;;;3.80;;
21979;SDS011;11154;48.558;9.234;2022-11-04T10:05:57;4.35;;;2.28;;
21979;SDS011;11154;48.558;9.234;2022-11-04T10:08:23;2.85;;;0.93;;
21979;SDS011;11154;48.558;9.234;2022-11-04T10:10:33;3.13;;;1.10;;
21979;SDS011;11154;48.558;9.234;2022-11-04T10:12:45;3.22;;;1.20;;
21979;SDS011;11154;48.558;9.234;2022-11-04T10:15:06;6.43;;;2.75;;
21979;SDS011;11154;48.558;9.234;2022-11-04T10:17:23;3.92;;;1.58;;
21979;SDS011;11154;48.558;9.234;2022-11-04T10:19:43;2.53;;;1.10;;
21979;SDS011;11154;48.558;9.234;2022-11-04T10:22:01;3.45;;;1.48;;
21979;SDS011;11154;48.558;9.234;2022-11-04T10:24:06;4.32;;;1.70;;
21979;SDS011;11154;48.558;9.234;2022-11-04T10:26:17;6.85;;;2.83;;
21979;SDS011;11154;48.558;9.234;2022-11-04T10:28:26;4.82;;;1.63;;
21979;SDS011;11154;48.558;9.234;2022-11-04T10:30:31;4.15;;;1.20;;
21979;SDS011;11154;48.558;9.234;2022-11-04T10:32:35;2.83;;;1.20;;
21979;SDS011;11154;48.558;9.234;2022-11-04T10:34:47;2.38;;;0.82;;
21979;SDS011;11154;48.558;9.234;2022-11-04T10:36:54;4.03;;;1.02;;
21979;SDS011;11154;48.558;9.234;2022-11-04T10:38:57;1.63;;;0.60;;
21979;SDS011;11154;48.558;9.234;2022-11-04T10:41:11;1.52;;;0.90;;
21979;SDS011;11154;48.558;9.234;2022-11-04T10:43:23;10.50;;;1.33;;
21979;SDS011;11154;48.558;9.234;2022-11-04T10:45:29;3.92;;;1.33;;
21979;SDS011;11154;48.558;9.234;2022-11-04T10:47:38;3.38;;;0.90;;
21979;SDS011;11154;48.558;9.234;2022-11-04T10:49:50;5.65;;;1.05;;
21979;SDS011;11154;48.558;9.234;2022-11-04T10:52:01;2.92;;;1.00;;
21979;SDS011;11154;48.558;9.234;2022-11-04T10:54:04;2.60;;;1.00;;
21979;SDS011;11154;48.558;9.234;2022-11-04T10:56:10;5.25;;;1.38;;
21979;SDS011;11154;48.558;9.234;2022-11-04T10:58:23;1.80;;;0.90;;
21979;SDS011;11154;48.558;9.234;2022-11-04T11:00:31;3.03;;;1.17;;
21979;SDS011;11154;48.558;9.234;2022-11-04T11:02:44;5.20;;;1.27;;
21979;SDS011;11154;48.558;9.234;2022-11-04T11:04:47;4.30;;;1.30;;
21979;SDS011;11154;48.558;9.234;2022-11-04T11:06:50;3.05;;;1.67;;
21979;SDS011;11154;48.558;9.234;2022-11-04T11:08:55;3.25;;;1.00;;
21979;SDS011;11154;48.558;9.234;2022-11-04T11:10:59;2.53;;;1.05;;
21979;SDS011;11154;48.558;9.234;2022-11-04T11:13:01;3.78;;;1.63;;
21979;SDS011;11154;48.558;9.234;2022-11-04T11:15:16;2.97;;;1.17;;
21979;SDS011;11154;48.558;9.234;2022-11-04T11:17:34;3.10;;;1.55;;
21979;SDS011;11154;48.558;9.234;2022-11-04T11:19:43;5.80;;;2.60;;
21979;SDS011;11154;48.558;9.234;2022-11-04T11:21:46;3.28;;;2.90;;
21979;SDS011;11154;48.558;9.234;2022-11-04T11:23:50;6.22;;;3.65;;
21979;SDS011;11154;48.558;9.234;2022-11-04T11:25:55;3.05;;;1.77;;
21979;SDS011;11154;48.558;9.234;2022-11-04T11:27:57;2.05;;;1.10;;
21979;SDS011;11154;48.558;9.234;2022-11-04T11:30:00;3.08;;;0.98;;
21979;SDS011;11154;48.558;9.234;2022-11-04T11:32:02;6.65;;;1.25;;
21979;SDS011;11154;48.558;9.234;2022-11-04T11:34:05;2.33;;;0.98;;
21979;SDS011;11154;48.558;9.234;2022-11-04T11:36:15;3.97;;;1.15;;
21979;SDS011;11154;48.558;9.234;2022-11-04T11:38:20;3.83;;;1.17;;
21979;SDS011;11154;48.558;9.234;2022-11-04T11:40:29;2.22;;;0.93;;
21979;SDS011;11154;48.558;9.234;2022-11-04T11:42:34;4.35;;;1.23;;
21979;SDS011;11154;48.558;9.234;2022-11-04T11:44:41;4.07;;;0.93;;
21979;SDS011;11154;48.558;9.234;2022-11-04T11:46:49;3.85;;;1.00;;
21979;SDS011;11154;48.558;9.234;2022-11-04T11:48:55;3.92;;;1.00;;
21979;SDS011;11154;48.558;9.234;2022-11-04T11:51:00;5.82;;;1.40;;
21979;SDS011;11154;48.558;9.234;2022-11-04T11:53:11;4.35;;;0.90;;
21979;SDS011;11154;48.558;9.234;2022-11-04T11:55:18;2.20;;;0.80;;
21979;SDS011;11154;48.558;9.234;2022-11-04T11:57:34;2.70;;;0.93;;
21979;SDS011;11154;48.558;9.234;2022-11-04T11:59:44;6.50;;;1.15;;
21979;SDS011;11154;48.558;9.234;2022-11-04T12:01:50;1.95;;;0.88;;
21979;SDS011;11154;48.558;9.234;2022-11-04T12:04:02;4.07;;;1.40;;
21979;SDS011;11154;48.558;9.234;2022-11-04T12:06:07;3.40;;;1.50;;
21979;SDS011;11154;48.558;9.234;2022-11-04T12:08:30;5.35;;;2.50;;
21979;SDS011;11154;48.558;9.234;2022-11-04T12:10:42;21.90;;;10.77;;
21979;SDS011;11154;48.558;9.234;2022-11-04T12:12:53;4.38;;;1.42;;
21979;SDS011;11154;48.558;9.234;2022-11-04T12:15:10;4.30;;;1.40;;
21979;SDS011;11154;48.558;9.234;2022-11-04T12:17:26;4.07;;;1.10;;
21979;SDS011;11154;48.558;9.234;2022-11-04T12:19:41;4.05;;;1.23;;
21979;SDS011;11154;48.558;9.234;2022-11-04T12:21:55;3.97;;;1.02;;
21979;SDS011;11154;48.558;9.234;2022-11-04T12:24:15;2.58;;;1.13;;
21979;SDS011;11154;48.558;9.234;2022-11-04T12:26:28;3.85;;;1.27;;
21979;SDS011;11154;48.558;9.234;2022-11-04T12:28:38;3.65;;;0.95;;
21979;SDS011;11154;48.558;9.234;2022-11-04T12:30:53;3.95;;;0.98;;
21979;SDS011;11154;48.558;9.234;2022-11-04T12:33:05;3.10;;;1.20;;
21979;SDS011;11154;48.558;9.234;2022-11-04T12:35:25;2.80;;;1.10;;
21979;SDS011;11154;48.558;9.234;2022-11-04T12:37:36;6.53;;;1.65;;
21979;SDS011;11154;48.558;9.234;2022-11-04T12:42:13;7.47;;;2.75;;
21979;SDS011;11154;48.558;9.234;2022-11-04T12:44:25;4.70;;;1.87;;